A- A+ FrançaisEnglishEspañol中国

最近的 LFBT Tarbes-Lourdes-PyrénéesLFCU Ussel-ThalamyLFPK Coulommiers-VoisinsLFRS Nantes-Atlantique

manche à air

飞行员的航空天气,使用METAR(气象机场报告)进行的飞行准备和TAF(终端机场预报:针对以下情况的短期天气预报)航空)。 以及其他资源,例如VAC(目视进近图)和NOTAM(通知飞行员)以进行预试飞行.

Norrkoping Kungsangen机场 (Suède) / OACI ESSP/ IATA NRK

Norrkoping Kungsangen机场的高度为10 m=33 ft. 它位于附近 Norrköping (Suède). 可提供5天天气预报 Norrkoping 位于 4 km.

METAR Norrkoping Kungsangen机场的 - ESSP

ESSP 291050Z AUTO VRB02KT 9999 OVC004/// 12/12 Q0995

Norrkoping Kungsangen机场METAR解码 (SE)

ESSP机场发行的METAR日期dimanche 29 septembre 2019至10:50 GMT. 这是一个自动生成的METAR. 警告:此METAR已过期,已于639分钟前发布.

可见度为大于 10 km=大于6.2 sm.

温度为12°C=54 °F 露点为12°C=54 °F 。 这相当于100%的相对湿度。.

QNH是995 hPa=29.38 inHg

的风2 kt=4 km/h, 风向为°.

云:多云400 ft=120云.

TAF Norrkoping Kungsangen机场的 - ESSP

ESSP 290608Z 2906/2907 VRB02KT 9999 BKN035 PROB40 2906/2907 0100 FG VV001

ESSP 290608Z 2906/2907 VRB02KT 9999 距云035 拥有40%的可能性 2906/2907 0100 多雾路段 VV001

附近的机场Norrkoping Kungsangen

Norrkoping的一般天气5天预报 (4 km)ESSL Linkoping SAAB机场 (39 km)ESKN Stockholm Skavsta机场 (44 km)ESCF Linkoping Malmen机场 (47 km)ESSU Eskiltuna机场 (89 km)ESQO Arboga机场 (91 km)ESOE Orebro机场 (99 km)

的鸟瞰图

Norrkoping Kungsangen机场的NOTAM

提供的NOTAM不能保证其时事性。 在将其用于飞行准备或在飞行期间使用之前,飞行员是唯一负责验证其有效性的人员。

没有通知

数据源